createdAt,value
2023-03-29T00:00:16.884Z,7.44
2023-03-29T00:02:48.698Z,7.49
2023-03-29T00:05:18.476Z,7.49
2023-03-29T00:07:46.255Z,7.52
2023-03-29T00:10:13.745Z,7.52
2023-03-29T00:12:42.013Z,7.48
2023-03-29T00:15:09.822Z,7.46
2023-03-29T00:17:37.359Z,7.46
2023-03-29T00:20:08.788Z,7.45
2023-03-29T00:22:42.288Z,7.51
2023-03-29T00:25:11.999Z,7.53
2023-03-29T00:27:40.095Z,7.52
2023-03-29T00:30:09.142Z,7.55
2023-03-29T00:32:38.118Z,7.52
2023-03-29T00:35:07.879Z,7.56
2023-03-29T00:37:35.829Z,7.48
2023-03-29T00:40:08.634Z,7.49
2023-03-29T00:42:36.501Z,7.49
2023-03-29T00:45:06.415Z,7.50
2023-03-29T00:48:07.622Z,7.50
2023-03-29T00:50:53.661Z,7.50
2023-03-29T00:53:29.538Z,7.45
2023-03-29T00:56:12.174Z,7.40
2023-03-29T00:59:01.507Z,7.43
2023-03-29T01:01:48.244Z,7.32
2023-03-29T01:04:37.284Z,7.34
2023-03-29T01:07:26.044Z,7.20
2023-03-29T01:09:58.597Z,7.22
2023-03-29T01:12:32.849Z,7.15
2023-03-29T01:15:05.512Z,7.15
2023-03-29T01:17:33.322Z,7.18
2023-03-29T01:20:15.482Z,7.14
2023-03-29T01:23:07.644Z,7.15
2023-03-29T01:25:35.076Z,7.11
2023-03-29T01:28:06.463Z,7.06
2023-03-29T01:30:40.943Z,7.05
2023-03-29T01:33:38.977Z,7.14
2023-03-29T01:36:27.622Z,7.10
2023-03-29T01:39:05.176Z,7.08
2023-03-29T01:41:57.386Z,7.06
2023-03-29T01:44:35.828Z,7.07
2023-03-29T01:47:19.856Z,7.07
2023-03-29T01:50:25.741Z,7.11
2023-03-29T01:52:53.237Z,7.10
2023-03-29T01:55:39.468Z,7.15
2023-03-29T01:58:10.584Z,7.14
2023-03-29T02:00:40.036Z,7.12
2023-03-29T02:03:09.795Z,7.10
2023-03-29T02:05:39.701Z,7.11
2023-03-29T02:08:10.301Z,7.11
2023-03-29T02:10:38.345Z,7.14
2023-03-29T02:13:06.298Z,7.13
2023-03-29T02:15:34.302Z,7.13
2023-03-29T02:18:04.061Z,7.15
2023-03-29T02:20:39.063Z,7.11
2023-03-29T02:23:13.822Z,7.10
2023-03-29T02:25:43.368Z,6.99
2023-03-29T02:28:11.914Z,7.04
2023-03-29T02:31:03.464Z,7.13
2023-03-29T02:33:53.559Z,7.20
2023-03-29T02:36:35.223Z,7.14
2023-03-29T02:39:06.138Z,7.12
2023-03-29T02:41:34.790Z,7.13
2023-03-29T02:44:05.453Z,7.12
2023-03-29T02:46:35.192Z,7.10
2023-03-29T02:49:05.267Z,7.13
2023-03-29T02:51:35.530Z,7.20
2023-03-29T02:54:09.722Z,7.19
2023-03-29T02:56:46.056Z,7.26
2023-03-29T02:59:14.520Z,7.28
2023-03-29T03:01:44.966Z,7.25
2023-03-29T03:04:13.473Z,7.32
2023-03-29T03:06:41.675Z,7.34
2023-03-29T03:09:11.135Z,7.39
2023-03-29T03:11:41.870Z,7.39
2023-03-29T03:14:09.712Z,7.41
2023-03-29T03:16:37.420Z,7.41
2023-03-29T03:19:07.373Z,7.46
2023-03-29T03:21:37.784Z,7.50
2023-03-29T03:24:07.854Z,7.57
2023-03-29T03:26:38.940Z,7.50
2023-03-29T03:29:08.145Z,7.47
2023-03-29T03:31:54.436Z,7.58
2023-03-29T03:34:45.007Z,7.49
2023-03-29T03:37:15.589Z,7.47
2023-03-29T03:39:43.540Z,7.48
2023-03-29T03:42:11.843Z,7.55
2023-03-29T03:44:43.267Z,7.51
2023-03-29T03:47:40.104Z,7.54
2023-03-29T03:50:28.236Z,7.54
2023-03-29T03:52:56.096Z,7.58
2023-03-29T03:55:24.244Z,7.52
2023-03-29T03:58:12.053Z,7.59
2023-03-29T04:00:39.601Z,7.62
2023-03-29T04:03:24.400Z,7.65
2023-03-29T04:05:53.671Z,7.65
2023-03-29T04:08:25.134Z,7.71
2023-03-29T04:11:11.978Z,7.73
2023-03-29T04:13:42.583Z,7.78
2023-03-29T04:16:27.795Z,7.89
2023-03-29T04:18:58.208Z,7.87
2023-03-29T04:21:27.316Z,7.92
2023-03-29T04:23:54.926Z,7.93
2023-03-29T04:26:23.209Z,7.96
2023-03-29T04:29:03.107Z,7.92
2023-03-29T04:31:38.980Z,7.99
2023-03-29T04:34:27.548Z,8.09
2023-03-29T04:36:58.842Z,8.18
2023-03-29T04:39:34.078Z,8.15
2023-03-29T04:42:05.370Z,8.22
2023-03-29T04:44:34.272Z,8.18
2023-03-29T04:47:05.232Z,8.20
2023-03-29T04:49:33.027Z,8.18
2023-03-29T04:52:01.035Z,8.15
2023-03-29T04:54:31.102Z,8.16
2023-03-29T04:56:59.040Z,8.18
2023-03-29T04:59:35.609Z,8.19
2023-03-29T05:02:09.311Z,8.16
2023-03-29T05:04:39.163Z,8.15
2023-03-29T05:07:15.439Z,8.35
2023-03-29T05:09:45.885Z,8.39
2023-03-29T05:12:13.730Z,8.41
2023-03-29T05:14:59.268Z,8.44
2023-03-29T05:17:31.888Z,8.48
2023-03-29T05:20:09.819Z,8.48
2023-03-29T05:22:38.766Z,8.52
2023-03-29T05:25:11.788Z,8.51
2023-03-29T05:27:42.676Z,8.46
2023-03-29T05:30:15.868Z,8.44
2023-03-29T05:33:10.660Z,8.48
2023-03-29T05:35:39.363Z,8.43
2023-03-29T05:38:09.070Z,8.46
2023-03-29T05:40:37.240Z,8.49
2023-03-29T05:43:43.402Z,8.65
2023-03-29T05:46:12.407Z,8.68
2023-03-29T05:48:47.581Z,8.72
2023-03-29T05:51:18.891Z,8.72
2023-03-29T05:53:46.724Z,8.85
2023-03-29T05:56:16.119Z,8.85
2023-03-29T05:58:47.342Z,8.90
2023-03-29T06:01:15.477Z,8.97
2023-03-29T06:03:57.539Z,9.09
2023-03-29T06:06:31.787Z,9.12
2023-03-29T06:09:01.484Z,9.19
2023-03-29T06:11:36.309Z,9.25
2023-03-29T06:14:24.594Z,9.25
2023-03-29T06:17:06.760Z,9.28
2023-03-29T06:19:35.320Z,9.30
2023-03-29T06:22:02.990Z,9.31
2023-03-29T06:24:33.944Z,9.38
2023-03-29T06:27:07.380Z,9.42
2023-03-29T06:29:35.425Z,9.45
2023-03-29T06:32:03.538Z,9.38
2023-03-29T06:34:57.825Z,9.40
2023-03-29T06:37:34.461Z,9.41
2023-03-29T06:40:23.061Z,9.40
2023-03-29T06:42:57.856Z,9.40
2023-03-29T06:45:44.766Z,9.43
2023-03-29T06:48:26.025Z,9.35
2023-03-29T06:50:54.704Z,9.23
2023-03-29T06:53:26.456Z,9.13
2023-03-29T06:56:01.211Z,9.09
2023-03-29T06:58:56.292Z,9.01
2023-03-29T07:01:39.209Z,8.90
2023-03-29T07:04:24.830Z,8.92
2023-03-29T07:08:00.365Z,8.90
2023-03-29T07:10:47.682Z,8.78
2023-03-29T07:13:45.941Z,8.75
2023-03-29T07:17:28.280Z,8.77
2023-03-29T07:20:29.863Z,8.61
2023-03-29T07:23:18.378Z,8.58
2023-03-29T07:25:47.491Z,8.61
2023-03-29T07:40:01.569Z,8.62
2023-03-29T07:42:46.960Z,8.70
2023-03-29T07:45:26.787Z,8.78
2023-03-29T07:48:02.218Z,9.00
2023-03-29T07:50:46.448Z,9.06
2023-03-29T07:53:14.766Z,9.16
2023-03-29T07:55:47.702Z,9.16
2023-03-29T07:58:54.328Z,9.21
2023-03-29T08:01:22.250Z,9.19
2023-03-29T08:04:13.219Z,9.27
2023-03-29T08:06:59.138Z,9.25
2023-03-29T08:09:38.983Z,9.18
2023-03-29T08:12:07.682Z,9.18
2023-03-29T08:14:38.636Z,9.27
2023-03-29T08:17:24.890Z,9.26
2023-03-29T08:20:00.506Z,9.37
2023-03-29T08:22:33.464Z,9.51
2023-03-29T08:25:12.123Z,9.59
2023-03-29T08:27:44.906Z,9.53
2023-03-29T08:30:16.549Z,9.51
2023-03-29T08:32:46.922Z,9.53
2023-03-29T08:35:18.930Z,9.63
2023-03-29T08:37:59.340Z,9.51
2023-03-29T08:40:32.082Z,9.55
2023-03-29T08:43:12.052Z,9.58
2023-03-29T08:46:46.562Z,9.55
2023-03-29T08:49:42.876Z,9.48
2023-03-29T08:52:34.529Z,9.43
2023-03-29T08:55:31.864Z,9.38
2023-03-29T08:58:27.557Z,9.33
2023-03-29T09:00:58.176Z,9.42
2023-03-29T09:03:35.171Z,9.37
2023-03-29T09:06:15.848Z,9.30
2023-03-29T09:08:49.403Z,9.35
2023-03-29T09:11:46.940Z,9.56
2023-03-29T09:14:21.917Z,9.54
2023-03-29T09:17:28.849Z,9.63
2023-03-29T09:20:19.045Z,9.61
2023-03-29T09:22:58.772Z,9.59
2023-03-29T09:25:54.013Z,9.61
2023-03-29T09:28:38.416Z,9.32
2023-03-29T09:31:23.159Z,9.22
2023-03-29T09:33:59.363Z,9.11
2023-03-29T09:37:15.920Z,9.03
2023-03-29T09:39:45.934Z,8.92
2023-03-29T09:42:19.819Z,8.82
2023-03-29T09:44:57.258Z,8.87
2023-03-29T09:47:57.235Z,8.98
2023-03-29T09:50:36.947Z,8.91
2023-03-29T09:53:08.721Z,8.82
2023-03-29T09:55:40.908Z,8.80
2023-03-29T09:58:31.292Z,8.77
2023-03-29T10:01:01.926Z,8.78
2023-03-29T10:04:13.036Z,8.90
2023-03-29T10:06:53.411Z,8.78
2023-03-29T10:10:10.633Z,8.76
2023-03-29T10:16:55.658Z,8.80
2023-03-29T10:19:28.476Z,8.75
2023-03-29T10:21:59.998Z,8.78
2023-03-29T10:24:28.452Z,8.76
2023-03-29T10:27:04.222Z,8.87
2023-03-29T10:29:43.210Z,8.84
2023-03-29T10:32:40.416Z,8.84
2023-03-29T10:35:11.924Z,8.83
2023-03-29T10:37:56.557Z,8.82
2023-03-29T10:40:35.209Z,8.84
2023-03-29T10:43:35.666Z,8.81
2023-03-29T10:46:21.509Z,8.82
2023-03-29T10:48:52.592Z,8.77
2023-03-29T10:51:20.791Z,8.73
2023-03-29T10:53:51.250Z,8.71
2023-03-29T10:56:40.720Z,8.74
2023-03-29T10:59:23.285Z,8.69
2023-03-29T11:02:09.218Z,8.68
2023-03-29T11:04:47.074Z,8.66
2023-03-29T11:07:58.609Z,8.64
2023-03-29T11:10:47.735Z,8.58
2023-03-29T11:13:40.147Z,8.56
2023-03-29T11:16:33.990Z,8.55
2023-03-29T11:19:31.979Z,8.58
2023-03-29T11:22:02.376Z,8.46
2023-03-29T11:24:54.518Z,8.47
2023-03-29T11:27:52.696Z,8.55
2023-03-29T11:30:36.257Z,8.44
2023-03-29T11:33:33.697Z,8.50
2023-03-29T11:36:16.915Z,8.44
2023-03-29T11:38:58.995Z,8.39
2023-03-29T11:41:34.600Z,8.32
2023-03-29T11:44:13.904Z,8.43
2023-03-29T11:46:50.866Z,8.36
2023-03-29T11:49:25.269Z,8.38
2023-03-29T11:51:59.749Z,8.43
2023-03-29T11:54:34.584Z,8.45
2023-03-29T11:57:14.243Z,8.39
2023-03-29T11:59:56.026Z,8.46
2023-03-29T12:02:39.930Z,8.42
2023-03-29T12:05:16.082Z,8.35
2023-03-29T12:07:52.759Z,8.36
2023-03-29T12:10:23.708Z,8.28
2023-03-29T12:13:12.112Z,8.49
2023-03-29T12:15:52.805Z,8.45
2023-03-29T12:18:27.891Z,8.49
2023-03-29T12:21:00.154Z,8.51
2023-03-29T12:23:32.903Z,8.51
2023-03-29T12:26:35.071Z,8.48
2023-03-29T12:29:30.851Z,8.46
2023-03-29T12:32:20.033Z,8.37
2023-03-29T12:35:37.975Z,8.36
2023-03-29T12:38:28.667Z,8.31
2023-03-29T12:41:16.782Z,8.24
2023-03-29T12:44:06.876Z,8.24
2023-03-29T12:46:52.462Z,8.20
2023-03-29T12:49:39.220Z,8.28
2023-03-29T12:52:38.078Z,8.29
2023-03-29T12:55:24.707Z,8.28
2023-03-29T12:58:21.831Z,8.24
2023-03-29T13:01:05.519Z,8.19
2023-03-29T13:03:57.828Z,8.26
2023-03-29T13:06:53.669Z,8.24
2023-03-29T13:09:35.398Z,8.21
2023-03-29T13:12:35.009Z,8.26
2023-03-29T13:15:06.261Z,8.14
2023-03-29T13:17:46.457Z,8.21
2023-03-29T13:20:14.262Z,8.18
2023-03-29T13:22:48.250Z,8.23
2023-03-29T13:25:19.161Z,8.12
2023-03-29T13:27:49.436Z,8.10
2023-03-29T13:30:55.320Z,8.10
2023-03-29T13:33:49.766Z,8.06
2023-03-29T13:36:39.392Z,8.10
2023-03-29T13:39:13.551Z,8.02
2023-03-29T13:41:41.202Z,8.03
2023-03-29T13:44:27.275Z,8.04
2023-03-29T13:47:12.709Z,7.97
2023-03-29T13:49:44.710Z,7.93
2023-03-29T13:52:16.529Z,7.96
2023-03-29T13:55:00.222Z,7.92
2023-03-29T13:57:59.610Z,8.04
2023-03-29T14:00:41.194Z,7.97
2023-03-29T14:03:14.985Z,7.94
2023-03-29T14:05:49.706Z,7.87
2023-03-29T14:08:25.546Z,7.91
2023-03-29T14:10:54.285Z,7.81
2023-03-29T14:13:25.626Z,7.85
2023-03-29T14:16:02.921Z,7.90
2023-03-29T14:18:37.814Z,7.93
2023-03-29T14:21:06.533Z,7.89
2023-03-29T14:23:37.534Z,7.91
2023-03-29T14:26:15.553Z,7.99
2023-03-29T14:28:47.091Z,7.93
2023-03-29T14:31:23.295Z,7.92
2023-03-29T14:33:55.549Z,7.90
2023-03-29T14:36:25.297Z,7.84
2023-03-29T14:38:59.659Z,7.88
2023-03-29T14:41:33.810Z,7.90
2023-03-29T14:44:03.188Z,7.91
2023-03-29T14:46:31.781Z,7.96
2023-03-29T14:49:00.175Z,8.00
2023-03-29T14:51:30.604Z,8.00
2023-03-29T14:54:00.343Z,7.96
2023-03-29T14:56:28.231Z,7.94
2023-03-29T14:58:56.860Z,7.99
2023-03-29T15:01:26.290Z,8.03
2023-03-29T15:03:56.758Z,8.07
2023-03-29T15:06:26.422Z,8.05
2023-03-29T15:09:05.041Z,8.08
2023-03-29T15:11:36.045Z,8.06
2023-03-29T15:14:08.981Z,8.10
2023-03-29T15:16:42.745Z,8.05
2023-03-29T15:19:17.490Z,8.12
2023-03-29T15:21:48.082Z,8.07
2023-03-29T15:24:30.526Z,8.07
2023-03-29T15:27:13.672Z,8.04
2023-03-29T15:29:42.901Z,8.10
2023-03-29T15:32:19.949Z,8.11
2023-03-29T15:34:58.777Z,8.18
2023-03-29T15:37:26.888Z,8.10
2023-03-29T15:39:54.561Z,8.13
2023-03-29T15:42:22.525Z,8.11
2023-03-29T15:44:53.833Z,8.11
2023-03-29T15:47:21.549Z,8.17
2023-03-29T15:49:49.204Z,8.21
2023-03-29T15:52:16.921Z,8.17
2023-03-29T15:54:44.489Z,8.10
2023-03-29T15:57:15.708Z,8.10
2023-03-29T15:59:44.606Z,8.08
2023-03-29T16:02:16.818Z,8.03
2023-03-29T16:04:45.648Z,8.08
2023-03-29T16:07:16.177Z,8.09
2023-03-29T16:09:46.100Z,8.06
2023-03-29T16:12:16.237Z,8.06
2023-03-29T16:14:43.834Z,8.09
2023-03-29T16:17:11.638Z,8.05
2023-03-29T16:19:39.155Z,8.13
2023-03-29T16:22:07.602Z,8.18
2023-03-29T16:24:36.447Z,8.18
2023-03-29T16:27:04.698Z,8.19
2023-03-29T16:29:32.740Z,8.13
2023-03-29T16:32:01.040Z,8.12
2023-03-29T16:34:30.633Z,8.15
2023-03-29T16:36:58.425Z,8.14
2023-03-29T16:39:26.219Z,8.23
2023-03-29T16:41:53.957Z,8.23
2023-03-29T16:44:23.598Z,8.26
2023-03-29T16:46:58.291Z,8.28
2023-03-29T16:49:26.138Z,8.27
2023-03-29T16:51:53.656Z,8.26
2023-03-29T16:54:21.443Z,8.30
2023-03-29T16:56:49.239Z,8.29
2023-03-29T16:59:16.954Z,8.28
2023-03-29T17:01:46.055Z,8.31
2023-03-29T17:04:13.727Z,8.25
2023-03-29T17:06:42.091Z,8.27
2023-03-29T17:09:10.098Z,8.30
2023-03-29T17:11:37.774Z,8.32
2023-03-29T17:14:05.252Z,8.30
2023-03-29T17:16:33.099Z,8.30
2023-03-29T17:19:00.998Z,8.31
2023-03-29T17:21:29.809Z,8.32
2023-03-29T17:23:57.371Z,8.35
2023-03-29T17:26:24.934Z,8.39
2023-03-29T17:28:52.570Z,8.38
2023-03-29T17:31:20.126Z,8.41
2023-03-29T17:33:50.582Z,8.40
2023-03-29T17:36:19.308Z,8.41
2023-03-29T17:38:48.946Z,8.36
2023-03-29T17:41:17.299Z,8.43
2023-03-29T17:43:45.351Z,8.41
2023-03-29T17:46:12.795Z,8.35
2023-03-29T17:48:40.360Z,8.23
2023-03-29T17:51:07.900Z,8.26
2023-03-29T17:53:35.470Z,8.27
2023-03-29T17:56:03.160Z,8.27
2023-03-29T17:58:31.422Z,8.30
2023-03-29T18:00:58.880Z,8.34
2023-03-29T18:03:26.603Z,8.33
2023-03-29T18:05:54.366Z,8.37
2023-03-29T18:08:22.018Z,8.37
2023-03-29T18:10:50.931Z,8.35
2023-03-29T18:13:24.622Z,8.32
2023-03-29T18:15:56.615Z,8.35
2023-03-29T18:18:25.318Z,8.29
2023-03-29T18:20:53.059Z,8.31
2023-03-29T18:23:20.627Z,8.28
2023-03-29T18:25:48.290Z,8.33
2023-03-29T18:28:15.937Z,8.32
2023-03-29T18:30:43.930Z,8.29
2023-03-29T18:33:11.411Z,8.20
2023-03-29T18:35:39.133Z,8.21
2023-03-29T18:38:06.889Z,8.26
2023-03-29T18:40:34.943Z,8.21
2023-03-29T18:43:02.860Z,8.23
2023-03-29T18:45:30.498Z,8.25
2023-03-29T18:47:58.168Z,8.29
2023-03-29T18:50:25.833Z,8.27
2023-03-29T18:52:54.066Z,8.38
2023-03-29T18:55:21.703Z,8.33
2023-03-29T18:57:49.440Z,8.34
2023-03-29T19:00:17.586Z,8.33
2023-03-29T19:02:45.264Z,8.31
2023-03-29T19:05:13.782Z,8.27
2023-03-29T19:07:41.283Z,8.30
2023-03-29T19:10:09.000Z,8.28
2023-03-29T19:12:36.813Z,8.25
2023-03-29T19:15:04.768Z,8.23
2023-03-29T19:17:32.312Z,8.21
2023-03-29T19:19:59.872Z,8.23
2023-03-29T19:22:27.399Z,8.18
2023-03-29T19:24:54.977Z,8.18
2023-03-29T19:27:22.476Z,8.19
2023-03-29T19:29:52.155Z,8.19
2023-03-29T19:32:19.855Z,8.20
2023-03-29T19:34:47.706Z,8.16
2023-03-29T19:37:17.688Z,8.17
2023-03-29T19:39:45.826Z,8.20
2023-03-29T19:42:13.631Z,8.16
2023-03-29T19:44:41.304Z,8.16
2023-03-29T19:47:08.767Z,8.16
2023-03-29T19:49:38.833Z,8.16
2023-03-29T19:52:07.482Z,8.20
2023-03-29T19:54:35.049Z,8.16
2023-03-29T19:57:02.872Z,8.12
2023-03-29T19:59:31.601Z,8.16
2023-03-29T20:01:59.451Z,8.10
2023-03-29T20:04:28.796Z,8.07
2023-03-29T20:06:57.754Z,8.10
2023-03-29T20:09:25.293Z,8.17
2023-03-29T20:11:52.745Z,8.13
2023-03-29T20:14:20.488Z,8.14
2023-03-29T20:16:50.708Z,8.17
2023-03-29T20:19:18.751Z,8.15
2023-03-29T20:21:46.375Z,8.13
2023-03-29T20:24:13.903Z,8.13
2023-03-29T20:26:41.403Z,8.13
2023-03-29T20:29:08.936Z,8.12
2023-03-29T20:31:36.588Z,8.08
2023-03-29T20:34:04.019Z,8.09
2023-03-29T20:36:33.086Z,8.06
2023-03-29T20:39:01.605Z,8.00
2023-03-29T20:41:29.334Z,8.03
2023-03-29T20:44:00.138Z,8.03
2023-03-29T20:46:35.140Z,8.08
2023-03-29T20:49:04.697Z,8.07
2023-03-29T20:51:32.280Z,8.05
2023-03-29T20:54:04.928Z,8.05
2023-03-29T20:56:34.724Z,8.08
2023-03-29T20:59:04.108Z,8.08
2023-03-29T21:01:32.820Z,8.08
2023-03-29T21:04:00.734Z,8.09
2023-03-29T21:06:28.339Z,8.13
2023-03-29T21:08:55.926Z,8.07
2023-03-29T21:11:23.812Z,8.12
2023-03-29T21:13:52.926Z,8.06
2023-03-29T21:16:20.868Z,8.09
2023-03-29T21:18:48.469Z,8.08
2023-03-29T21:21:15.923Z,8.11
2023-03-29T21:23:43.522Z,8.17
2023-03-29T21:26:12.670Z,8.14
2023-03-29T21:28:41.463Z,8.17
2023-03-29T21:31:09.946Z,8.19
2023-03-29T21:33:37.596Z,8.15
2023-03-29T21:36:05.780Z,8.22
2023-03-29T21:38:33.374Z,8.18
2023-03-29T21:41:02.424Z,8.17
2023-03-29T21:43:30.392Z,8.19
2023-03-29T21:45:57.994Z,8.18
2023-03-29T21:48:25.658Z,8.11
2023-03-29T21:50:53.164Z,8.13
2023-03-29T21:53:20.649Z,8.13
2023-03-29T21:55:49.161Z,8.14
2023-03-29T21:58:17.038Z,8.17
2023-03-29T22:00:45.155Z,8.20
2023-03-29T22:03:13.777Z,8.14
2023-03-29T22:05:42.095Z,8.12
2023-03-29T22:08:10.375Z,8.12
2023-03-29T22:10:41.424Z,8.15
2023-03-29T22:13:09.449Z,8.17
2023-03-29T22:15:39.057Z,8.25
2023-03-29T22:18:06.689Z,8.27
2023-03-29T22:20:36.958Z,8.20
2023-03-29T22:23:06.776Z,8.22
2023-03-29T22:25:36.643Z,8.18
2023-03-29T22:28:04.356Z,8.14
2023-03-29T22:30:31.828Z,8.16
2023-03-29T22:32:59.438Z,8.14
2023-03-29T22:35:28.000Z,8.18
2023-03-29T22:37:55.562Z,8.22
2023-03-29T22:40:23.026Z,8.23
2023-03-29T22:42:50.910Z,8.18
2023-03-29T22:45:18.838Z,8.22
2023-03-29T22:47:46.655Z,8.22
2023-03-29T22:50:14.170Z,8.18
2023-03-29T22:52:41.695Z,8.21
2023-03-29T22:55:09.505Z,8.21
2023-03-29T22:57:36.996Z,8.15
2023-03-29T23:00:09.254Z,8.20
2023-03-29T23:02:37.387Z,8.28
2023-03-29T23:05:05.176Z,8.31
2023-03-29T23:07:36.485Z,8.33
2023-03-29T23:10:07.718Z,8.37
2023-03-29T23:12:38.373Z,8.35
2023-03-29T23:15:08.158Z,8.40
2023-03-29T23:17:37.334Z,8.39
2023-03-29T23:20:10.914Z,8.37
2023-03-29T23:22:39.908Z,8.38
2023-03-29T23:25:07.904Z,8.37
2023-03-29T23:27:35.574Z,8.30
2023-03-29T23:30:03.418Z,8.28
2023-03-29T23:32:31.554Z,8.28
2023-03-29T23:35:00.182Z,8.28
2023-03-29T23:37:28.233Z,8.28
2023-03-29T23:39:55.934Z,8.26
2023-03-29T23:42:23.709Z,8.26
2023-03-29T23:44:51.318Z,8.23
2023-03-29T23:47:19.073Z,8.23
2023-03-29T23:49:46.950Z,8.25
2023-03-29T23:52:14.563Z,8.26
2023-03-29T23:54:42.170Z,8.33
2023-03-29T23:57:12.270Z,8.35
2023-03-29T23:59:40.256Z,8.38
